sensor_id;sensor_type;location;lat;lon;timestamp;P1;durP1;ratioP1;P2;durP2;ratioP2
1164;SDS011;571;50.930;6.926;2022-07-22T04:02:50;9.07;;;6.87;;
1164;SDS011;571;50.930;6.926;2022-07-22T04:05:17;9.63;;;6.57;;
1164;SDS011;571;50.930;6.926;2022-07-22T04:07:44;11.43;;;7.53;;
1164;SDS011;571;50.930;6.926;2022-07-22T04:10:11;15.57;;;8.30;;
1164;SDS011;571;50.930;6.926;2022-07-22T04:12:38;8.80;;;7.90;;
1164;SDS011;571;50.930;6.926;2022-07-22T04:17:34;13.27;;;7.40;;
1164;SDS011;571;50.930;6.926;2022-07-22T04:20:03;17.07;;;8.07;;
1164;SDS011;571;50.930;6.926;2022-07-22T04:22:31;11.90;;;7.13;;
1164;SDS011;571;50.930;6.926;2022-07-22T04:24:57;12.10;;;7.50;;
1164;SDS011;571;50.930;6.926;2022-07-22T04:27:24;10.87;;;7.70;;
1164;SDS011;571;50.930;6.926;2022-07-22T04:29:51;13.87;;;8.10;;
1164;SDS011;571;50.930;6.926;2022-07-22T04:32:18;9.43;;;7.33;;
1164;SDS011;571;50.930;6.926;2022-07-22T04:34:44;10.33;;;7.40;;
1164;SDS011;571;50.930;6.926;2022-07-22T04:37:12;10.33;;;8.07;;
1164;SDS011;571;50.930;6.926;2022-07-22T04:39:39;9.27;;;7.00;;
1164;SDS011;571;50.930;6.926;2022-07-22T04:42:06;12.87;;;8.10;;
1164;SDS011;571;50.930;6.926;2022-07-22T04:44:33;12.70;;;6.83;;
1164;SDS011;571;50.930;6.926;2022-07-22T04:47:00;13.30;;;7.03;;
1164;SDS011;571;50.930;6.926;2022-07-22T04:49:26;10.53;;;7.07;;
1164;SDS011;571;50.930;6.926;2022-07-22T04:51:53;10.20;;;7.07;;
1164;SDS011;571;50.930;6.926;2022-07-22T04:54:21;6.83;;;5.57;;
1164;SDS011;571;50.930;6.926;2022-07-22T04:56:48;7.23;;;5.63;;
1164;SDS011;571;50.930;6.926;2022-07-22T04:59:15;9.27;;;5.73;;
1164;SDS011;571;50.930;6.926;2022-07-22T05:01:42;8.40;;;5.70;;
1164;SDS011;571;50.930;6.926;2022-07-22T05:04:09;9.57;;;6.73;;
1164;SDS011;571;50.930;6.926;2022-07-22T05:06:36;11.53;;;6.40;;
1164;SDS011;571;50.930;6.926;2022-07-22T05:09:02;9.93;;;6.13;;
1164;SDS011;571;50.930;6.926;2022-07-22T05:11:31;10.40;;;6.73;;
1164;SDS011;571;50.930;6.926;2022-07-22T05:13:58;9.80;;;6.00;;
1164;SDS011;571;50.930;6.926;2022-07-22T05:16:24;13.63;;;7.00;;
1164;SDS011;571;50.930;6.926;2022-07-22T05:18:51;9.53;;;7.50;;
1164;SDS011;571;50.930;6.926;2022-07-22T05:21:18;13.57;;;7.30;;
1164;SDS011;571;50.930;6.926;2022-07-22T05:23:45;10.23;;;6.27;;
1164;SDS011;571;50.930;6.926;2022-07-22T05:26:11;11.80;;;6.50;;
1164;SDS011;571;50.930;6.926;2022-07-22T05:28:40;7.83;;;7.03;;
1164;SDS011;571;50.930;6.926;2022-07-22T05:31:06;11.10;;;8.70;;
1164;SDS011;571;50.930;6.926;2022-07-22T05:33:33;11.97;;;8.87;;
1164;SDS011;571;50.930;6.926;2022-07-22T05:36:00;11.67;;;8.13;;
1164;SDS011;571;50.930;6.926;2022-07-22T05:38:27;14.73;;;9.27;;
1164;SDS011;571;50.930;6.926;2022-07-22T05:40:54;11.40;;;7.80;;
1164;SDS011;571;50.930;6.926;2022-07-22T05:43:20;15.53;;;8.40;;
1164;SDS011;571;50.930;6.926;2022-07-22T05:45:48;11.63;;;8.47;;
1164;SDS011;571;50.930;6.926;2022-07-22T05:48:15;10.00;;;7.80;;
1164;SDS011;571;50.930;6.926;2022-07-22T05:50:42;13.50;;;8.20;;
1164;SDS011;571;50.930;6.926;2022-07-22T05:53:09;13.83;;;9.10;;
1164;SDS011;571;50.930;6.926;2022-07-22T05:55:35;10.17;;;8.23;;
1164;SDS011;571;50.930;6.926;2022-07-22T05:58:02;10.60;;;9.30;;
1164;SDS011;571;50.930;6.926;2022-07-22T06:00:29;13.30;;;7.60;;
1164;SDS011;571;50.930;6.926;2022-07-22T06:02:57;10.73;;;7.03;;
1164;SDS011;571;50.930;6.926;2022-07-22T06:05:24;12.30;;;8.10;;
1164;SDS011;571;50.930;6.926;2022-07-22T06:07:51;11.40;;;7.03;;
1164;SDS011;571;50.930;6.926;2022-07-22T06:10:17;12.77;;;8.37;;
1164;SDS011;571;50.930;6.926;2022-07-22T06:12:44;12.60;;;8.47;;
1164;SDS011;571;50.930;6.926;2022-07-22T06:15:11;12.67;;;8.57;;
1164;SDS011;571;50.930;6.926;2022-07-22T06:17:38;14.30;;;8.43;;
1164;SDS011;571;50.930;6.926;2022-07-22T06:20:06;10.47;;;6.60;;
1164;SDS011;571;50.930;6.926;2022-07-22T06:22:34;10.63;;;8.03;;
1164;SDS011;571;50.930;6.926;2022-07-22T06:25:01;9.97;;;7.93;;
1164;SDS011;571;50.930;6.926;2022-07-22T06:27:27;20.60;;;9.80;;
1164;SDS011;571;50.930;6.926;2022-07-22T06:29:54;10.57;;;9.47;;
1164;SDS011;571;50.930;6.926;2022-07-22T06:32:21;12.13;;;8.90;;
1164;SDS011;571;50.930;6.926;2022-07-22T06:34:48;10.97;;;8.60;;
1164;SDS011;571;50.930;6.926;2022-07-22T06:37:16;15.07;;;9.43;;
1164;SDS011;571;50.930;6.926;2022-07-22T06:39:43;12.80;;;8.00;;
1164;SDS011;571;50.930;6.926;2022-07-22T06:42:11;9.97;;;7.93;;
1164;SDS011;571;50.930;6.926;2022-07-22T06:44:38;11.30;;;7.40;;
1164;SDS011;571;50.930;6.926;2022-07-22T06:47:05;10.70;;;8.60;;
1164;SDS011;571;50.930;6.926;2022-07-22T06:49:32;9.00;;;7.53;;
1164;SDS011;571;50.930;6.926;2022-07-22T06:51:58;12.90;;;8.10;;
1164;SDS011;571;50.930;6.926;2022-07-22T06:54:27;10.53;;;8.43;;
1164;SDS011;571;50.930;6.926;2022-07-22T06:56:54;11.43;;;6.70;;
1164;SDS011;571;50.930;6.926;2022-07-22T06:59:22;9.10;;;6.93;;
1164;SDS011;571;50.930;6.926;2022-07-22T07:01:49;10.90;;;7.40;;
1164;SDS011;571;50.930;6.926;2022-07-22T07:04:16;5.30;;;4.80;;
1164;SDS011;571;50.930;6.926;2022-07-22T07:06:43;9.17;;;5.03;;
1164;SDS011;571;50.930;6.926;2022-07-22T07:09:10;6.40;;;4.83;;
1164;SDS011;571;50.930;6.926;2022-07-22T07:11:38;6.40;;;4.40;;
1164;SDS011;571;50.930;6.926;2022-07-22T07:14:05;7.50;;;4.87;;
1164;SDS011;571;50.930;6.926;2022-07-22T07:16:32;6.00;;;4.63;;
1164;SDS011;571;50.930;6.926;2022-07-22T07:18:58;5.03;;;4.30;;
1164;SDS011;571;50.930;6.926;2022-07-22T07:21:25;6.03;;;4.00;;
1164;SDS011;571;50.930;6.926;2022-07-22T07:23:52;6.27;;;3.67;;
1164;SDS011;571;50.930;6.926;2022-07-22T07:26:19;7.00;;;4.10;;
1164;SDS011;571;50.930;6.926;2022-07-22T07:28:47;6.73;;;3.70;;
1164;SDS011;571;50.930;6.926;2022-07-22T07:31:13;3.80;;;3.40;;
1164;SDS011;571;50.930;6.926;2022-07-22T07:33:40;5.37;;;3.87;;
1164;SDS011;571;50.930;6.926;2022-07-22T07:36:08;5.57;;;3.90;;
1164;SDS011;571;50.930;6.926;2022-07-22T07:38:34;6.43;;;4.17;;
1164;SDS011;571;50.930;6.926;2022-07-22T07:41:02;5.50;;;3.67;;
1164;SDS011;571;50.930;6.926;2022-07-22T07:43:29;7.63;;;4.80;;
1164;SDS011;571;50.930;6.926;2022-07-22T07:45:57;6.67;;;4.40;;
1164;SDS011;571;50.930;6.926;2022-07-22T07:48:23;5.90;;;3.93;;
1164;SDS011;571;50.930;6.926;2022-07-22T07:50:50;5.60;;;4.17;;
1164;SDS011;571;50.930;6.926;2022-07-22T07:53:17;6.67;;;4.37;;
1164;SDS011;571;50.930;6.926;2022-07-22T07:55:44;5.63;;;3.30;;
1164;SDS011;571;50.930;6.926;2022-07-22T07:58:11;8.20;;;4.20;;
1164;SDS011;571;50.930;6.926;2022-07-22T08:00:38;6.53;;;4.17;;
1164;SDS011;571;50.930;6.926;2022-07-22T08:03:08;8.70;;;4.10;;
1164;SDS011;571;50.930;6.926;2022-07-22T08:05:35;7.47;;;4.50;;
1164;SDS011;571;50.930;6.926;2022-07-22T08:08:04;8.47;;;4.67;;
1164;SDS011;571;50.930;6.926;2022-07-22T08:10:32;6.97;;;4.60;;
1164;SDS011;571;50.930;6.926;2022-07-22T08:12:59;7.07;;;4.97;;
1164;SDS011;571;50.930;6.926;2022-07-22T08:15:26;6.43;;;4.07;;
1164;SDS011;571;50.930;6.926;2022-07-22T08:17:53;3.93;;;3.53;;
1164;SDS011;571;50.930;6.926;2022-07-22T08:20:22;6.00;;;5.07;;
1164;SDS011;571;50.930;6.926;2022-07-22T08:22:50;6.70;;;4.43;;
1164;SDS011;571;50.930;6.926;2022-07-22T08:25:18;5.40;;;4.87;;
1164;SDS011;571;50.930;6.926;2022-07-22T08:27:45;5.47;;;4.97;;
1164;SDS011;571;50.930;6.926;2022-07-22T08:30:12;5.27;;;4.30;;
1164;SDS011;571;50.930;6.926;2022-07-22T08:32:39;8.10;;;5.10;;
1164;SDS011;571;50.930;6.926;2022-07-22T08:35:06;8.83;;;5.93;;
1164;SDS011;571;50.930;6.926;2022-07-22T08:37:35;9.27;;;5.13;;
1164;SDS011;571;50.930;6.926;2022-07-22T08:40:02;8.27;;;5.23;;
1164;SDS011;571;50.930;6.926;2022-07-22T08:42:31;8.77;;;5.53;;
1164;SDS011;571;50.930;6.926;2022-07-22T08:44:58;7.47;;;5.23;;
1164;SDS011;571;50.930;6.926;2022-07-22T08:47:25;9.20;;;6.37;;
1164;SDS011;571;50.930;6.926;2022-07-22T08:49:52;10.83;;;6.57;;
1164;SDS011;571;50.930;6.926;2022-07-22T08:52:19;6.80;;;5.30;;
1164;SDS011;571;50.930;6.926;2022-07-22T08:54:48;6.57;;;5.80;;
1164;SDS011;571;50.930;6.926;2022-07-22T08:57:14;8.20;;;6.10;;
1164;SDS011;571;50.930;6.926;2022-07-22T08:59:48;7.80;;;5.20;;
1164;SDS011;571;50.930;6.926;2022-07-22T09:02:16;6.90;;;5.60;;
1164;SDS011;571;50.930;6.926;2022-07-22T09:04:49;6.60;;;5.13;;
1164;SDS011;571;50.930;6.926;2022-07-22T09:07:22;5.80;;;5.20;;
1164;SDS011;571;50.930;6.926;2022-07-22T09:09:55;9.50;;;5.50;;
1164;SDS011;571;50.930;6.926;2022-07-22T09:12:22;7.30;;;5.60;;
1164;SDS011;571;50.930;6.926;2022-07-22T09:14:50;7.27;;;6.33;;
1164;SDS011;571;50.930;6.926;2022-07-22T09:17:24;7.20;;;5.23;;
1164;SDS011;571;50.930;6.926;2022-07-22T09:19:52;8.43;;;6.90;;
1164;SDS011;571;50.930;6.926;2022-07-22T09:22:33;7.53;;;5.77;;
1164;SDS011;571;50.930;6.926;2022-07-22T09:25:22;14.23;;;6.23;;
1164;SDS011;571;50.930;6.926;2022-07-22T09:27:55;9.83;;;6.10;;
1164;SDS011;571;50.930;6.926;2022-07-22T09:30:36;7.27;;;6.10;;
1164;SDS011;571;50.930;6.926;2022-07-22T09:33:05;9.23;;;6.07;;
1164;SDS011;571;50.930;6.926;2022-07-22T09:35:33;5.30;;;4.80;;
1164;SDS011;571;50.930;6.926;2022-07-22T09:38:00;6.83;;;5.60;;
1164;SDS011;571;50.930;6.926;2022-07-22T09:40:30;13.10;;;6.60;;
1164;SDS011;571;50.930;6.926;2022-07-22T09:43:00;7.20;;;6.50;;
1164;SDS011;571;50.930;6.926;2022-07-22T09:45:29;8.00;;;5.80;;
1164;SDS011;571;50.930;6.926;2022-07-22T09:47:58;10.50;;;6.00;;
1164;SDS011;571;50.930;6.926;2022-07-22T09:50:26;7.23;;;5.70;;
1164;SDS011;571;50.930;6.926;2022-07-22T09:52:55;8.03;;;6.37;;
1164;SDS011;571;50.930;6.926;2022-07-22T09:55:23;9.67;;;6.10;;
1164;SDS011;571;50.930;6.926;2022-07-22T09:57:53;6.70;;;5.80;;
1164;SDS011;571;50.930;6.926;2022-07-22T10:00:22;10.67;;;6.70;;
1164;SDS011;571;50.930;6.926;2022-07-22T10:02:51;6.17;;;5.20;;
1164;SDS011;571;50.930;6.926;2022-07-22T10:05:23;9.23;;;6.87;;
1164;SDS011;571;50.930;6.926;2022-07-22T10:07:51;8.53;;;7.07;;
1164;SDS011;571;50.930;6.926;2022-07-22T10:10:20;9.00;;;7.33;;
1164;SDS011;571;50.930;6.926;2022-07-22T10:12:49;10.50;;;6.80;;
1164;SDS011;571;50.930;6.926;2022-07-22T10:15:19;10.00;;;8.77;;
1164;SDS011;571;50.930;6.926;2022-07-22T10:17:47;8.33;;;7.43;;
1164;SDS011;571;50.930;6.926;2022-07-22T10:20:16;9.37;;;7.50;;
1164;SDS011;571;50.930;6.926;2022-07-22T10:22:46;13.40;;;7.20;;
1164;SDS011;571;50.930;6.926;2022-07-22T10:25:22;14.13;;;10.87;;
1164;SDS011;571;50.930;6.926;2022-07-22T10:27:51;10.87;;;9.47;;
1164;SDS011;571;50.930;6.926;2022-07-22T10:30:26;10.00;;;9.00;;
1164;SDS011;571;50.930;6.926;2022-07-22T10:33:07;8.80;;;7.00;;
1164;SDS011;571;50.930;6.926;2022-07-22T10:35:36;9.13;;;8.20;;
1164;SDS011;571;50.930;6.926;2022-07-22T10:38:17;9.47;;;7.73;;
1164;SDS011;571;50.930;6.926;2022-07-22T10:40:51;12.10;;;9.57;;
1164;SDS011;571;50.930;6.926;2022-07-22T10:43:19;9.83;;;8.63;;
1164;SDS011;571;50.930;6.926;2022-07-22T10:45:49;11.70;;;9.60;;
1164;SDS011;571;50.930;6.926;2022-07-22T10:48:19;9.30;;;8.33;;
1164;SDS011;571;50.930;6.926;2022-07-22T10:50:52;10.00;;;8.97;;
1164;SDS011;571;50.930;6.926;2022-07-22T10:53:22;9.10;;;7.60;;
1164;SDS011;571;50.930;6.926;2022-07-22T10:56:00;8.97;;;8.07;;
1164;SDS011;571;50.930;6.926;2022-07-22T11:01:37;11.07;;;9.10;;
1164;SDS011;571;50.930;6.926;2022-07-22T11:04:08;10.20;;;9.10;;
1164;SDS011;571;50.930;6.926;2022-07-22T11:06:37;10.87;;;9.50;;
1164;SDS011;571;50.930;6.926;2022-07-22T11:09:05;9.90;;;8.67;;
1164;SDS011;571;50.930;6.926;2022-07-22T11:11:37;10.33;;;8.53;;
1164;SDS011;571;50.930;6.926;2022-07-22T11:14:20;12.20;;;10.13;;
1164;SDS011;571;50.930;6.926;2022-07-22T11:16:53;11.73;;;8.90;;
1164;SDS011;571;50.930;6.926;2022-07-22T11:19:22;9.70;;;8.23;;
1164;SDS011;571;50.930;6.926;2022-07-22T11:21:51;8.40;;;7.60;;
1164;SDS011;571;50.930;6.926;2022-07-22T11:24:19;8.37;;;7.47;;
1164;SDS011;571;50.930;6.926;2022-07-22T11:26:47;8.90;;;8.00;;
1164;SDS011;571;50.930;6.926;2022-07-22T11:29:16;12.40;;;9.23;;
1164;SDS011;571;50.930;6.926;2022-07-22T11:31:44;8.87;;;7.97;;
1164;SDS011;571;50.930;6.926;2022-07-22T11:34:13;12.43;;;8.30;;
1164;SDS011;571;50.930;6.926;2022-07-22T11:36:42;9.07;;;8.00;;
1164;SDS011;571;50.930;6.926;2022-07-22T11:39:10;14.33;;;8.90;;
1164;SDS011;571;50.930;6.926;2022-07-22T11:41:38;9.37;;;8.47;;
1164;SDS011;571;50.930;6.926;2022-07-22T11:44:06;10.43;;;8.43;;
1164;SDS011;571;50.930;6.926;2022-07-22T11:46:36;9.57;;;8.63;;
1164;SDS011;571;50.930;6.926;2022-07-22T11:49:04;10.10;;;8.80;;
1164;SDS011;571;50.930;6.926;2022-07-22T11:51:34;10.33;;;8.03;;
1164;SDS011;571;50.930;6.926;2022-07-22T11:54:02;12.73;;;8.30;;
1164;SDS011;571;50.930;6.926;2022-07-22T11:56:29;11.77;;;8.80;;
1164;SDS011;571;50.930;6.926;2022-07-22T11:58:57;13.63;;;9.13;;
1164;SDS011;571;50.930;6.926;2022-07-22T12:01:29;8.23;;;7.43;;
1164;SDS011;571;50.930;6.926;2022-07-22T12:03:59;12.57;;;10.57;;
1164;SDS011;571;50.930;6.926;2022-07-22T12:06:29;10.60;;;8.67;;
1164;SDS011;571;50.930;6.926;2022-07-22T12:09:03;10.77;;;8.70;;
1164;SDS011;571;50.930;6.926;2022-07-22T12:11:33;9.30;;;8.43;;
1164;SDS011;571;50.930;6.926;2022-07-22T12:14:07;13.83;;;9.60;;
1164;SDS011;571;50.930;6.926;2022-07-22T12:16:42;12.07;;;8.93;;
1164;SDS011;571;50.930;6.926;2022-07-22T12:19:10;10.90;;;9.80;;
1164;SDS011;571;50.930;6.926;2022-07-22T12:21:49;11.67;;;9.63;;
1164;SDS011;571;50.930;6.926;2022-07-22T12:24:24;10.67;;;9.57;;
1164;SDS011;571;50.930;6.926;2022-07-22T12:26:53;10.63;;;9.53;;
1164;SDS011;571;50.930;6.926;2022-07-22T12:29:23;12.40;;;11.10;;
1164;SDS011;571;50.930;6.926;2022-07-22T12:31:51;11.60;;;10.40;;
1164;SDS011;571;50.930;6.926;2022-07-22T12:34:29;11.87;;;10.17;;
1164;SDS011;571;50.930;6.926;2022-07-22T12:37:01;10.60;;;9.50;;
1164;SDS011;571;50.930;6.926;2022-07-22T12:39:40;11.33;;;9.80;;
1164;SDS011;571;50.930;6.926;2022-07-22T12:42:18;9.33;;;8.37;;
1164;SDS011;571;50.930;6.926;2022-07-22T12:44:53;11.83;;;9.90;;
1164;SDS011;571;50.930;6.926;2022-07-22T12:47:44;12.40;;;10.53;;
1164;SDS011;571;50.930;6.926;2022-07-22T12:50:20;10.33;;;9.33;;
1164;SDS011;571;50.930;6.926;2022-07-22T12:52:52;10.73;;;9.57;;
1164;SDS011;571;50.930;6.926;2022-07-22T12:55:22;11.47;;;9.23;;
1164;SDS011;571;50.930;6.926;2022-07-22T12:57:48;11.60;;;9.63;;
1164;SDS011;571;50.930;6.926;2022-07-22T13:00:16;11.70;;;10.37;;
1164;SDS011;571;50.930;6.926;2022-07-22T13:02:44;12.07;;;8.80;;
1164;SDS011;571;50.930;6.926;2022-07-22T13:05:10;11.43;;;9.93;;
1164;SDS011;571;50.930;6.926;2022-07-22T13:07:37;10.33;;;9.40;;
1164;SDS011;571;50.930;6.926;2022-07-22T13:10:05;11.20;;;10.10;;
1164;SDS011;571;50.930;6.926;2022-07-22T13:12:34;11.30;;;9.83;;
1164;SDS011;571;50.930;6.926;2022-07-22T13:15:01;10.53;;;9.53;;
1164;SDS011;571;50.930;6.926;2022-07-22T13:17:27;12.80;;;9.60;;
1164;SDS011;571;50.930;6.926;2022-07-22T13:19:55;11.90;;;9.53;;
1164;SDS011;571;50.930;6.926;2022-07-22T13:22:21;10.73;;;8.90;;
1164;SDS011;571;50.930;6.926;2022-07-22T13:24:48;12.47;;;11.13;;
1164;SDS011;571;50.930;6.926;2022-07-22T13:27:15;10.53;;;9.17;;
1164;SDS011;571;50.930;6.926;2022-07-22T13:29:43;11.27;;;9.70;;
1164;SDS011;571;50.930;6.926;2022-07-22T13:32:10;10.10;;;9.20;;
1164;SDS011;571;50.930;6.926;2022-07-22T13:34:37;13.00;;;11.20;;
1164;SDS011;571;50.930;6.926;2022-07-22T13:37:04;12.43;;;11.17;;
1164;SDS011;571;50.930;6.926;2022-07-22T13:39:30;10.17;;;9.17;;
1164;SDS011;571;50.930;6.926;2022-07-22T13:41:57;11.93;;;10.70;;
1164;SDS011;571;50.930;6.926;2022-07-22T13:44:24;12.40;;;11.10;;
1164;SDS011;571;50.930;6.926;2022-07-22T13:46:52;11.77;;;10.57;;
1164;SDS011;571;50.930;6.926;2022-07-22T13:49:19;10.67;;;9.57;;
1164;SDS011;571;50.930;6.926;2022-07-22T13:51:46;12.40;;;10.60;;
1164;SDS011;571;50.930;6.926;2022-07-22T13:54:13;15.20;;;10.70;;
1164;SDS011;571;50.930;6.926;2022-07-22T13:56:40;10.83;;;9.77;;
1164;SDS011;571;50.930;6.926;2022-07-22T13:59:08;15.90;;;12.30;;
1164;SDS011;571;50.930;6.926;2022-07-22T14:01:36;19.03;;;11.17;;
1164;SDS011;571;50.930;6.926;2022-07-22T14:04:04;14.17;;;12.67;;
1164;SDS011;571;50.930;6.926;2022-07-22T14:06:31;15.20;;;11.10;;
1164;SDS011;571;50.930;6.926;2022-07-22T14:08:58;11.87;;;10.67;;
1164;SDS011;571;50.930;6.926;2022-07-22T14:11:25;11.00;;;9.37;;
1164;SDS011;571;50.930;6.926;2022-07-22T14:13:52;12.93;;;11.40;;
1164;SDS011;571;50.930;6.926;2022-07-22T14:16:18;11.77;;;10.67;;
1164;SDS011;571;50.930;6.926;2022-07-22T14:19:01;12.20;;;11.00;;
1164;SDS011;571;50.930;6.926;2022-07-22T14:21:30;11.10;;;10.00;;
1164;SDS011;571;50.930;6.926;2022-07-22T14:23:57;11.73;;;10.53;;
1164;SDS011;571;50.930;6.926;2022-07-22T14:26:24;11.53;;;10.50;;
1164;SDS011;571;50.930;6.926;2022-07-22T14:28:51;11.70;;;10.00;;
1164;SDS011;571;50.930;6.926;2022-07-22T14:31:18;12.27;;;10.20;;
1164;SDS011;571;50.930;6.926;2022-07-22T14:33:45;13.00;;;10.70;;
1164;SDS011;571;50.930;6.926;2022-07-22T14:36:12;12.10;;;10.90;;
1164;SDS011;571;50.930;6.926;2022-07-22T14:38:40;11.10;;;10.07;;
1164;SDS011;571;50.930;6.926;2022-07-22T14:41:07;11.73;;;8.50;;
1164;SDS011;571;50.930;6.926;2022-07-22T14:43:34;10.10;;;9.10;;
1164;SDS011;571;50.930;6.926;2022-07-22T14:46:01;13.03;;;10.33;;
1164;SDS011;571;50.930;6.926;2022-07-22T14:48:29;11.67;;;10.50;;
1164;SDS011;571;50.930;6.926;2022-07-22T14:50:56;11.47;;;10.20;;
1164;SDS011;571;50.930;6.926;2022-07-22T14:53:22;12.20;;;9.57;;
1164;SDS011;571;50.930;6.926;2022-07-22T14:55:51;11.43;;;10.23;;
1164;SDS011;571;50.930;6.926;2022-07-22T14:58:18;11.10;;;9.60;;
1164;SDS011;571;50.930;6.926;2022-07-22T15:00:45;11.23;;;10.13;;
1164;SDS011;571;50.930;6.926;2022-07-22T15:03:12;12.00;;;9.63;;
1164;SDS011;571;50.930;6.926;2022-07-22T15:05:38;11.83;;;10.13;;
1164;SDS011;571;50.930;6.926;2022-07-22T15:08:06;14.20;;;11.00;;
1164;SDS011;571;50.930;6.926;2022-07-22T15:10:33;10.53;;;9.53;;
1164;SDS011;571;50.930;6.926;2022-07-22T15:13:01;10.70;;;9.37;;
1164;SDS011;571;50.930;6.926;2022-07-22T15:15:28;12.00;;;10.00;;
1164;SDS011;571;50.930;6.926;2022-07-22T15:17:54;12.43;;;9.67;;
1164;SDS011;571;50.930;6.926;2022-07-22T15:20:23;10.27;;;9.37;;
1164;SDS011;571;50.930;6.926;2022-07-22T15:22:49;12.50;;;9.10;;
1164;SDS011;571;50.930;6.926;2022-07-22T15:25:16;10.77;;;9.77;;
1164;SDS011;571;50.930;6.926;2022-07-22T15:27:43;10.60;;;9.07;;
1164;SDS011;571;50.930;6.926;2022-07-22T15:30:11;10.43;;;9.13;;
1164;SDS011;571;50.930;6.926;2022-07-22T15:32:38;11.30;;;10.10;;
1164;SDS011;571;50.930;6.926;2022-07-22T15:35:06;10.83;;;9.73;;
1164;SDS011;571;50.930;6.926;2022-07-22T15:37:33;10.87;;;9.77;;
1164;SDS011;571;50.930;6.926;2022-07-22T15:40:03;14.07;;;11.47;;
1164;SDS011;571;50.930;6.926;2022-07-22T15:42:30;12.93;;;11.53;;
1164;SDS011;571;50.930;6.926;2022-07-22T15:44:57;12.67;;;11.37;;
1164;SDS011;571;50.930;6.926;2022-07-22T15:47:25;11.40;;;10.20;;
1164;SDS011;571;50.930;6.926;2022-07-22T15:49:52;18.03;;;12.33;;
1164;SDS011;571;50.930;6.926;2022-07-22T15:52:19;12.53;;;10.67;;
1164;SDS011;571;50.930;6.926;2022-07-22T15:54:45;14.93;;;11.90;;
1164;SDS011;571;50.930;6.926;2022-07-22T15:57:12;15.90;;;11.33;;
1164;SDS011;571;50.930;6.926;2022-07-22T15:59:56;13.63;;;11.50;;
1164;SDS011;571;50.930;6.926;2022-07-22T16:02:23;19.10;;;11.57;;
1164;SDS011;571;50.930;6.926;2022-07-22T16:04:51;11.33;;;10.20;;
1164;SDS011;571;50.930;6.926;2022-07-22T16:07:18;12.40;;;10.50;;
1164;SDS011;571;50.930;6.926;2022-07-22T16:09:44;12.27;;;9.27;;
1164;SDS011;571;50.930;6.926;2022-07-22T16:12:11;12.20;;;9.63;;
1164;SDS011;571;50.930;6.926;2022-07-22T16:14:38;11.40;;;9.07;;
1164;SDS011;571;50.930;6.926;2022-07-22T16:17:05;19.50;;;11.60;;
1164;SDS011;571;50.930;6.926;2022-07-22T16:19:31;14.13;;;10.93;;
1164;SDS011;571;50.930;6.926;2022-07-22T16:21:59;12.80;;;11.03;;
1164;SDS011;571;50.930;6.926;2022-07-22T16:24:28;14.20;;;11.07;;
1164;SDS011;571;50.930;6.926;2022-07-22T16:26:55;16.63;;;13.17;;
1164;SDS011;571;50.930;6.926;2022-07-22T16:29:21;11.83;;;10.63;;
1164;SDS011;571;50.930;6.926;2022-07-22T16:31:48;14.97;;;13.10;;
1164;SDS011;571;50.930;6.926;2022-07-22T16:34:15;14.03;;;10.13;;
1164;SDS011;571;50.930;6.926;2022-07-22T16:36:41;13.50;;;11.50;;
1164;SDS011;571;50.930;6.926;2022-07-22T16:39:09;14.67;;;10.37;;
1164;SDS011;571;50.930;6.926;2022-07-22T16:41:36;14.50;;;10.87;;
1164;SDS011;571;50.930;6.926;2022-07-22T16:44:03;12.73;;;10.37;;
1164;SDS011;571;50.930;6.926;2022-07-22T16:46:30;11.80;;;9.87;;
1164;SDS011;571;50.930;6.926;2022-07-22T16:48:57;14.70;;;10.17;;
1164;SDS011;571;50.930;6.926;2022-07-22T16:51:24;13.80;;;12.13;;
1164;SDS011;571;50.930;6.926;2022-07-22T16:53:50;14.57;;;11.33;;
1164;SDS011;571;50.930;6.926;2022-07-22T16:56:18;12.23;;;10.87;;
1164;SDS011;571;50.930;6.926;2022-07-22T16:58:45;18.00;;;13.00;;
1164;SDS011;571;50.930;6.926;2022-07-22T17:01:12;14.47;;;11.30;;
1164;SDS011;571;50.930;6.926;2022-07-22T17:03:39;15.80;;;11.23;;
1164;SDS011;571;50.930;6.926;2022-07-22T17:06:06;15.23;;;11.60;;
1164;SDS011;571;50.930;6.926;2022-07-22T17:08:33;16.30;;;11.93;;
1164;SDS011;571;50.930;6.926;2022-07-22T17:11:00;14.83;;;11.53;;
1164;SDS011;571;50.930;6.926;2022-07-22T17:13:28;14.27;;;12.50;;
1164;SDS011;571;50.930;6.926;2022-07-22T17:15:56;13.77;;;11.87;;
1164;SDS011;571;50.930;6.926;2022-07-22T17:18:22;14.00;;;11.60;;
1164;SDS011;571;50.930;6.926;2022-07-22T17:20:51;15.53;;;12.63;;
1164;SDS011;571;50.930;6.926;2022-07-22T17:23:17;12.97;;;11.67;;
1164;SDS011;571;50.930;6.926;2022-07-22T17:25:44;14.13;;;12.20;;
1164;SDS011;571;50.930;6.926;2022-07-22T17:28:11;16.70;;;12.43;;
1164;SDS011;571;50.930;6.926;2022-07-22T17:30:39;14.90;;;11.80;;
1164;SDS011;571;50.930;6.926;2022-07-22T17:33:06;17.50;;;14.00;;
1164;SDS011;571;50.930;6.926;2022-07-22T17:35:33;15.53;;;11.77;;
1164;SDS011;571;50.930;6.926;2022-07-22T17:38:03;16.43;;;13.60;;
1164;SDS011;571;50.930;6.926;2022-07-22T17:40:31;16.37;;;12.10;;
1164;SDS011;571;50.930;6.926;2022-07-22T17:42:58;14.20;;;11.17;;
1164;SDS011;571;50.930;6.926;2022-07-22T17:45:25;15.43;;;12.20;;
1164;SDS011;571;50.930;6.926;2022-07-22T17:47:53;14.97;;;13.00;;
1164;SDS011;571;50.930;6.926;2022-07-22T17:50:20;18.33;;;13.13;;
1164;SDS011;571;50.930;6.926;2022-07-22T17:52:47;13.97;;;12.20;;
1164;SDS011;571;50.930;6.926;2022-07-22T17:55:14;15.80;;;12.70;;
1164;SDS011;571;50.930;6.926;2022-07-22T17:57:41;14.47;;;12.47;;
1164;SDS011;571;50.930;6.926;2022-07-22T18:00:08;16.77;;;12.23;;
1164;SDS011;571;50.930;6.926;2022-07-22T18:02:35;17.23;;;13.67;;
1164;SDS011;571;50.930;6.926;2022-07-22T18:05:04;18.60;;;14.23;;
1164;SDS011;571;50.930;6.926;2022-07-22T18:07:31;14.27;;;11.27;;
1164;SDS011;571;50.930;6.926;2022-07-22T18:09:58;15.10;;;12.00;;
1164;SDS011;571;50.930;6.926;2022-07-22T18:12:25;15.03;;;13.40;;
1164;SDS011;571;50.930;6.926;2022-07-22T18:14:52;15.20;;;13.60;;
1164;SDS011;571;50.930;6.926;2022-07-22T18:17:19;19.00;;;13.70;;
1164;SDS011;571;50.930;6.926;2022-07-22T18:19:45;15.40;;;13.27;;
1164;SDS011;571;50.930;6.926;2022-07-22T18:22:13;16.53;;;13.23;;
1164;SDS011;571;50.930;6.926;2022-07-22T18:24:42;15.83;;;14.10;;
1164;SDS011;571;50.930;6.926;2022-07-22T18:27:09;19.43;;;12.83;;
1164;SDS011;571;50.930;6.926;2022-07-22T18:29:36;16.73;;;13.17;;
1164;SDS011;571;50.930;6.926;2022-07-22T18:32:03;18.00;;;13.87;;
1164;SDS011;571;50.930;6.926;2022-07-22T18:34:30;14.80;;;11.83;;
1164;SDS011;571;50.930;6.926;2022-07-22T18:36:57;17.93;;;14.20;;
1164;SDS011;571;50.930;6.926;2022-07-22T18:39:25;13.70;;;12.13;;
1164;SDS011;571;50.930;6.926;2022-07-22T18:41:51;18.67;;;14.70;;
1164;SDS011;571;50.930;6.926;2022-07-22T18:44:18;18.87;;;13.53;;
1164;SDS011;571;50.930;6.926;2022-07-22T18:46:45;19.13;;;13.50;;
1164;SDS011;571;50.930;6.926;2022-07-22T18:49:11;18.40;;;14.90;;
1164;SDS011;571;50.930;6.926;2022-07-22T18:51:38;16.70;;;13.17;;
1164;SDS011;571;50.930;6.926;2022-07-22T18:54:06;17.37;;;12.97;;
1164;SDS011;571;50.930;6.926;2022-07-22T18:56:35;15.80;;;13.33;;
1164;SDS011;571;50.930;6.926;2022-07-22T18:59:02;15.30;;;13.40;;
1164;SDS011;571;50.930;6.926;2022-07-22T19:01:29;20.20;;;14.43;;
1164;SDS011;571;50.930;6.926;2022-07-22T19:03:55;16.70;;;13.77;;
1164;SDS011;571;50.930;6.926;2022-07-22T19:06:22;20.20;;;14.30;;
1164;SDS011;571;50.930;6.926;2022-07-22T19:08:49;18.20;;;14.23;;
1164;SDS011;571;50.930;6.926;2022-07-22T19:11:18;16.90;;;14.00;;
1164;SDS011;571;50.930;6.926;2022-07-22T19:13:47;18.47;;;14.13;;
1164;SDS011;571;50.930;6.926;2022-07-22T19:16:14;17.87;;;15.20;;
1164;SDS011;571;50.930;6.926;2022-07-22T19:18:40;16.60;;;14.80;;
1164;SDS011;571;50.930;6.926;2022-07-22T19:21:07;15.53;;;13.00;;
1164;SDS011;571;50.930;6.926;2022-07-22T19:23:36;17.23;;;13.40;;
1164;SDS011;571;50.930;6.926;2022-07-22T19:26:03;15.30;;;13.10;;
1164;SDS011;571;50.930;6.926;2022-07-22T19:28:30;16.97;;;13.67;;